Time;durP1;ratioP1;P1;durP2;ratioP2;P2;SDS_P1;SDS_P2;PMS_P1;PMS_P2;Temp;Humidity;BMP_temperature;BMP_pressure;BME280_temperature;BME280_humidity;BME280_pressure;Samples;Min_cycle;Max_cycle;Signal;HPM_P1;HPM_P2
2021/08/10 00:01:04;;;;;;;7.75;5.45;;;;;;;14.96;100.00;101014.63;3574327;40;20064;-44
2021/08/10 00:03:31;;;;;;;6.55;5.32;;;;;;;14.92;100.00;101015.41;3574588;40;20072;-45
2021/08/10 00:05:58;;;;;;;10.52;5.70;;;;;;;15.01;100.00;101017.25;3574233;40;20052;-45
2021/08/10 00:08:25;;;;;;;6.53;5.22;;;;;;;14.76;100.00;101016.94;3574153;40;20104;-44
2021/08/10 00:10:53;;;;;;;8.27;5.32;;;;;;;14.87;100.00;101014.50;3574581;40;20081;-44
2021/08/10 00:13:22;;;;;;;6.38;5.13;;;;;;;14.93;100.00;101009.44;3574063;40;20494;-46
2021/08/10 00:15:49;;;;;;;8.30;5.20;;;;;;;14.78;100.00;101007.50;3573791;40;20314;-43
2021/08/10 00:18:17;;;;;;;9.07;6.10;;;;;;;14.91;100.00;101010.25;3574108;40;20059;-43
2021/08/10 00:20:44;;;;;;;10.85;7.40;;;;;;;14.84;100.00;101008.47;3574030;40;20084;-47
2021/08/10 00:23:11;;;;;;;9.40;5.68;;;;;;;14.86;100.00;101004.19;3574181;40;20106;-43
2021/08/10 00:25:38;;;;;;;9.48;6.65;;;;;;;14.84;100.00;101014.47;3574075;40;20412;-43
2021/08/10 00:28:05;;;;;;;6.20;5.47;;;;;;;14.78;100.00;101014.38;3574053;40;20434;-43
2021/08/10 00:30:32;;;;;;;8.00;6.00;;;;;;;14.74;100.00;101021.22;3574065;40;20096;-46
2021/08/10 00:33:00;;;;;;;7.30;5.70;;;;;;;14.72;100.00;101016.88;3574024;40;20056;-45
2021/08/10 00:35:27;;;;;;;8.30;6.85;;;;;;;14.59;100.00;101025.28;3573877;40;20449;-46
2021/08/10 00:37:54;;;;;;;12.50;7.43;;;;;;;14.67;100.00;101015.94;3574064;40;20085;-44
2021/08/10 00:40:21;;;;;;;8.93;5.85;;;;;;;14.68;100.00;101012.53;3574296;40;20049;-44
2021/08/10 00:42:48;;;;;;;7.55;6.40;;;;;;;14.48;100.00;101018.25;3573984;40;20065;-44
2021/08/10 00:45:16;;;;;;;7.53;6.25;;;;;;;14.44;100.00;101013.88;3573994;40;20154;-44
2021/08/10 00:47:43;;;;;;;10.43;6.13;;;;;;;14.67;100.00;101026.25;3573769;40;20108;-43
2021/08/10 00:50:11;;;;;;;9.32;6.85;;;;;;;14.50;100.00;101026.88;3574760;40;20053;-46
2021/08/10 00:52:38;;;;;;;9.50;7.07;;;;;;;14.55;100.00;101020.91;3575168;40;20052;-46
2021/08/10 00:55:06;;;;;;;7.60;6.88;;;;;;;14.36;100.00;101018.03;3575249;40;20078;-43
2021/08/10 00:57:34;;;;;;;9.52;6.82;;;;;;;14.32;100.00;101023.09;3575397;40;20092;-43
2021/08/10 01:00:01;;;;;;;12.63;6.95;;;;;;;14.16;100.00;101022.00;3575446;40;20108;-43
2021/08/10 01:02:28;;;;;;;6.75;5.72;;;;;;;14.52;100.00;101021.75;3575628;40;20079;-45
2021/08/10 01:04:55;;;;;;;12.48;5.70;;;;;;;14.33;100.00;101014.53;3575373;40;20063;-43
2021/08/10 01:07:49;;;;;;;10.82;5.80;;;;;;;14.34;100.00;101012.00;3574970;40;20069;-44
2021/08/10 01:10:45;;;;;;;7.75;6.35;;;;;;;14.18;100.00;101018.59;3575497;40;20108;-45
2021/08/10 01:13:31;;;;;;;8.13;5.60;;;;;;;14.28;100.00;101017.03;3566784;40;20081;-44
2021/08/10 01:16:08;;;;;;;8.57;5.78;;;;;;;14.17;100.00;101016.88;3575047;40;20307;-44
2021/08/10 01:18:40;;;;;;;8.10;6.20;;;;;;;14.35;100.00;101011.16;3575493;40;20067;-44
2021/08/10 01:21:17;;;;;;;6.70;5.38;;;;;;;14.66;100.00;101011.66;3575395;40;20056;-45
2021/08/10 01:23:48;;;;;;;7.13;5.47;;;;;;;14.63;100.00;101015.03;3575310;40;20053;-43
2021/08/10 01:26:36;;;;;;;8.70;6.07;;;;;;;14.60;100.00;101016.69;3575040;40;20081;-45
2021/08/10 01:29:32;;;;;;;16.02;6.20;;;;;;;14.41;100.00;101013.81;3575236;40;20080;-44
2021/08/10 01:32:01;;;;;;;10.75;6.82;;;;;;;14.28;100.00;101017.03;3575218;40;20085;-44
2021/08/10 01:34:38;;;;;;;9.45;6.60;;;;;;;14.22;100.00;101012.66;3573952;40;20664;-47
2021/08/10 01:37:10;;;;;;;12.70;6.80;;;;;;;14.09;100.00;101007.28;3575058;40;20100;-44
2021/08/10 01:39:39;;;;;;;13.80;7.35;;;;;;;13.98;100.00;101000.25;3575224;40;20053;-43
2021/08/10 01:42:07;;;;;;;16.40;8.48;;;;;;;14.42;100.00;101002.69;3575088;40;20065;-45
2021/08/10 01:44:35;;;;;;;10.18;8.07;;;;;;;14.56;100.00;101002.91;3575200;40;20089;-44
2021/08/10 01:47:07;;;;;;;11.77;8.85;;;;;;;14.31;100.00;101003.34;3574103;40;20041;-46
2021/08/10 01:49:37;;;;;;;11.00;8.60;;;;;;;14.47;100.00;101002.75;3574994;40;20100;-44
2021/08/10 01:52:06;;;;;;;13.90;8.70;;;;;;;14.36;100.00;101004.28;3574990;40;20057;-43
2021/08/10 01:54:36;;;;;;;11.07;7.63;;;;;;;13.98;100.00;100996.81;3574975;40;20115;-45
2021/08/10 01:57:04;;;;;;;11.15;7.80;;;;;;;13.88;100.00;101002.66;3574782;40;20104;-45
2021/08/10 01:59:31;;;;;;;12.00;7.32;;;;;;;13.84;100.00;101001.75;3575297;40;20320;-44
2021/08/10 02:02:01;;;;;;;8.38;6.55;;;;;;;13.90;100.00;101008.69;3574993;40;20123;-44
2021/08/10 02:04:30;;;;;;;6.88;6.07;;;;;;;13.87;100.00;101001.81;3575110;40;20049;-45
2021/08/10 02:06:58;;;;;;;7.32;6.15;;;;;;;14.14;100.00;100998.81;3574981;40;20052;-43
2021/08/10 02:09:25;;;;;;;6.28;5.50;;;;;;;14.27;100.00;101007.59;3575762;40;20053;-45
2021/08/10 02:11:53;;;;;;;9.70;5.85;;;;;;;14.24;100.00;101000.69;3575023;40;20081;-44
2021/08/10 02:14:24;;;;;;;7.82;5.53;;;;;;;14.30;100.00;100999.06;3574980;40;20045;-44
2021/08/10 02:16:55;;;;;;;10.27;5.75;;;;;;;14.23;100.00;101000.66;3574802;40;20056;-43
2021/08/10 02:19:23;;;;;;;6.65;5.78;;;;;;;14.01;100.00;101002.91;3574855;40;20366;-44
2021/08/10 02:22:01;;;;;;;9.82;6.65;;;;;;;14.16;100.00;100996.25;3574953;40;20048;-44
2021/08/10 02:24:35;;;;;;;7.10;5.70;;;;;;;14.19;100.00;101002.34;3575015;40;20045;-45
2021/08/10 02:27:06;;;;;;;7.63;5.55;;;;;;;14.00;100.00;101000.28;3574791;40;20331;-44
2021/08/10 02:29:40;;;;;;;6.45;5.05;;;;;;;14.19;100.00;101002.34;3574873;40;20092;-43
2021/08/10 02:32:09;;;;;;;7.00;5.85;;;;;;;13.90;100.00;101006.97;3575007;40;20093;-44
2021/08/10 02:34:38;;;;;;;7.15;5.78;;;;;;;14.08;100.00;101001.28;3574845;40;20057;-44
2021/08/10 02:37:06;;;;;;;5.38;4.88;;;;;;;14.29;100.00;101005.06;3574754;40;20470;-45
2021/08/10 02:39:37;;;;;;;8.77;5.85;;;;;;;14.26;100.00;101008.44;3574752;40;20355;-46
2021/08/10 02:42:06;;;;;;;9.10;5.68;;;;;;;14.06;100.00;101002.97;3574538;40;20385;-44
2021/08/10 02:44:36;;;;;;;8.18;5.78;;;;;;;14.11;100.00;101011.63;3574825;40;20092;-43
2021/08/10 02:47:03;;;;;;;6.35;5.68;;;;;;;14.13;100.00;101012.50;3574883;40;20056;-44
2021/08/10 02:49:30;;;;;;;7.40;5.25;;;;;;;14.07;100.00;101008.97;3574361;40;20092;-44
2021/08/10 02:51:57;;;;;;;5.97;5.03;;;;;;;13.80;100.00;101010.25;3574449;40;20375;-46
2021/08/10 02:54:25;;;;;;;7.43;5.38;;;;;;;13.56;100.00;101004.66;3574838;40;20049;-44
2021/08/10 02:57:00;;;;;;;6.55;5.30;;;;;;;13.54;100.00;100996.03;3574601;40;20108;-45
2021/08/10 02:59:37;;;;;;;7.80;6.05;;;;;;;13.64;100.00;101001.41;3574460;40;20057;-44
2021/08/10 03:02:19;;;;;;;7.05;5.55;;;;;;;13.64;100.00;101003.97;3574671;40;20055;-43
2021/08/10 03:05:07;;;;;;;9.40;5.82;;;;;;;13.98;100.00;101001.97;3574607;40;20073;-45
2021/08/10 03:07:35;;;;;;;8.75;6.38;;;;;;;13.93;100.00;101003.59;3574631;40;20104;-44
2021/08/10 03:10:05;;;;;;;8.75;5.82;;;;;;;14.10;100.00;101003.91;3574595;40;20348;-45
2021/08/10 03:12:36;;;;;;;10.85;6.10;;;;;;;14.00;100.00;101005.41;3581511;40;20056;-45
2021/08/10 03:15:04;;;;;;;9.25;5.90;;;;;;;13.89;100.00;100999.25;3584645;40;20361;-44
2021/08/10 03:17:37;;;;;;;13.07;6.80;;;;;;;13.76;100.00;100999.00;3582696;40;20060;-44
2021/08/10 03:20:07;;;;;;;10.18;6.68;;;;;;;13.53;100.00;100999.44;3581094;40;20060;-44
2021/08/10 03:22:37;;;;;;;12.27;6.38;;;;;;;13.50;100.00;101002.84;3574871;40;20092;-45
2021/08/10 03:25:05;;;;;;;9.48;6.18;;;;;;;13.74;100.00;101002.41;3574908;40;20075;-44
2021/08/10 03:27:34;;;;;;;12.10;6.57;;;;;;;13.53;100.00;100991.72;3574525;40;20036;-46
2021/08/10 03:30:05;;;;;;;10.73;6.65;;;;;;;13.28;100.00;100999.00;3574399;40;20236;-44
2021/08/10 03:32:34;;;;;;;9.63;7.60;;;;;;;13.16;100.00;100993.56;3574386;40;20086;-45
2021/08/10 03:35:06;;;;;;;14.30;7.82;;;;;;;13.11;100.00;100990.91;3576664;40;20088;-44
2021/08/10 03:37:33;;;;;;;11.05;7.55;;;;;;;13.16;100.00;100988.41;3580579;40;20048;-43
2021/08/10 03:40:01;;;;;;;12.30;6.80;;;;;;;13.19;100.00;100993.63;3576863;40;20066;-45
2021/08/10 03:42:29;;;;;;;11.00;6.60;;;;;;;13.22;100.00;100986.03;3573931;40;20056;-45
2021/08/10 03:44:57;;;;;;;11.38;6.65;;;;;;;13.16;100.00;100980.69;3574426;40;20049;-44
2021/08/10 03:47:24;;;;;;;9.70;6.85;;;;;;;13.17;100.00;100980.75;3574188;40;20081;-45
2021/08/10 03:49:53;;;;;;;7.72;6.55;;;;;;;13.13;100.00;100973.81;3575228;40;20093;-44
2021/08/10 03:52:21;;;;;;;8.80;6.30;;;;;;;13.07;100.00;100973.66;3574808;40;20071;-47
2021/08/10 03:54:48;;;;;;;8.50;6.00;;;;;;;13.25;100.00;100974.06;3574392;40;20470;-45
2021/08/10 03:57:17;;;;;;;9.02;5.93;;;;;;;13.65;100.00;100979.09;3574046;40;20084;-45
2021/08/10 03:59:47;;;;;;;7.70;6.10;;;;;;;13.32;100.00;100977.63;3574245;40;20093;-45
2021/08/10 04:02:16;;;;;;;6.90;5.75;;;;;;;13.82;100.00;100979.38;3574169;40;20044;-46
2021/08/10 04:04:45;;;;;;;12.00;7.00;;;;;;;13.91;100.00;100984.66;3574611;40;20049;-45
2021/08/10 04:07:13;;;;;;;10.77;7.40;;;;;;;13.50;100.00;100977.97;3574195;40;20059;-44
2021/08/10 04:09:41;;;;;;;10.65;7.80;;;;;;;13.66;100.00;100979.13;3573978;40;20080;-45
2021/08/10 04:12:11;;;;;;;8.02;7.00;;;;;;;13.74;100.00;100980.13;3574424;40;20138;-44
2021/08/10 04:14:42;;;;;;;14.27;7.72;;;;;;;13.83;100.00;100981.13;3574424;40;20096;-44
2021/08/10 04:17:09;;;;;;;13.30;7.70;;;;;;;13.41;100.00;100975.25;3574137;40;20061;-45
2021/08/10 04:19:45;;;;;;;11.85;7.38;;;;;;;13.38;100.00;100977.75;3574060;40;20097;-49
2021/08/10 04:22:13;;;;;;;11.05;7.07;;;;;;;13.52;100.00;100978.00;3573853;40;20060;-47
2021/08/10 04:24:41;;;;;;;14.75;8.23;;;;;;;13.25;100.00;100971.50;3573721;40;20045;-45
2021/08/10 04:27:07;;;;;;;14.23;7.75;;;;;;;13.25;100.00;100962.91;3574082;40;20056;-45
2021/08/10 04:29:34;;;;;;;9.68;7.13;;;;;;;13.48;100.00;100965.91;3573933;40;20131;-47
2021/08/10 04:32:02;;;;;;;12.05;7.15;;;;;;;13.69;100.00;100974.03;3574006;40;20048;-45
2021/08/10 04:34:29;;;;;;;14.68;6.90;;;;;;;13.82;100.00;100974.22;3573884;40;20052;-44
2021/08/10 04:36:56;;;;;;;13.93;7.97;;;;;;;13.69;100.00;100976.59;3574266;40;20084;-44
2021/08/10 04:39:26;;;;;;;12.05;7.22;;;;;;;13.89;100.00;100970.91;3574171;40;20055;-45
2021/08/10 04:41:53;;;;;;;11.18;7.55;;;;;;;13.79;100.00;100974.19;3574233;40;20081;-47
2021/08/10 04:44:21;;;;;;;8.13;5.88;;;;;;;14.02;100.00;100972.84;3573697;40;20474;-45
2021/08/10 04:46:49;;;;;;;10.77;6.57;;;;;;;13.96;100.00;100972.78;3573193;40;20454;-43
2021/08/10 04:49:17;;;;;;;6.90;5.97;;;;;;;13.95;100.00;100971.88;3573208;40;20064;-46
2021/08/10 04:51:44;;;;;;;10.85;6.00;;;;;;;14.25;100.00;100968.94;3574051;40;20517;-44
2021/08/10 04:54:11;;;;;;;10.10;5.78;;;;;;;14.23;100.00;100972.31;3574010;40;20081;-45
2021/08/10 04:56:38;;;;;;;6.50;5.28;;;;;;;14.32;100.00;100972.44;3573545;40;20077;-45
2021/08/10 04:59:05;;;;;;;8.85;5.20;;;;;;;14.65;100.00;100976.38;3572885;40;20793;-45
2021/08/10 05:01:32;;;;;;;8.43;5.63;;;;;;;14.49;100.00;100972.75;3573611;40;20479;-44
2021/08/10 05:03:59;;;;;;;9.13;6.05;;;;;;;14.56;100.00;100978.84;3573716;40;20048;-44
2021/08/10 05:06:26;;;;;;;10.35;6.25;;;;;;;14.36;100.00;100968.22;3574128;40;20635;-43
2021/08/10 05:08:53;;;;;;;10.07;6.18;;;;;;;14.62;100.00;100972.06;3573838;40;20085;-45
2021/08/10 05:11:20;;;;;;;8.95;6.10;;;;;;;14.22;100.00;100974.03;3573989;40;20085;-46
2021/08/10 05:13:47;;;;;;;12.18;6.78;;;;;;;14.30;100.00;100965.56;3574023;40;20122;-43
2021/08/10 05:16:14;;;;;;;6.15;4.93;;;;;;;14.40;100.00;100965.72;3573788;40;20085;-45
2021/08/10 05:18:42;;;;;;;6.47;5.28;;;;;;;14.45;100.00;100968.34;3573495;40;20090;-44
2021/08/10 05:21:08;;;;;;;8.40;5.70;;;;;;;14.99;100.00;100975.13;3573436;40;20100;-45
2021/08/10 05:23:36;;;;;;;9.32;5.10;;;;;;;14.83;100.00;100960.28;3573471;40;20443;-44
2021/08/10 05:26:03;;;;;;;9.15;5.03;;;;;;;14.88;100.00;100958.63;3573549;40;20395;-48
2021/08/10 05:28:30;;;;;;;11.20;4.35;;;;;;;15.40;100.00;100970.44;3573326;40;20059;-44
2021/08/10 05:30:57;;;;;;;8.00;4.35;;;;;;;15.23;100.00;100961.63;3573700;40;20068;-46
2021/08/10 05:33:24;;;;;;;7.40;4.43;;;;;;;15.46;100.00;100970.47;3573494;40;20045;-44
2021/08/10 05:35:51;;;;;;;6.22;4.63;;;;;;;15.43;100.00;100962.69;3573826;40;20111;-44
2021/08/10 05:38:18;;;;;;;9.05;4.20;;;;;;;15.26;100.00;100964.25;3574899;40;20354;-44
2021/08/10 05:40:45;;;;;;;7.28;4.55;;;;;;;15.41;100.00;100961.84;3575320;40;20037;-46
2021/08/10 05:43:12;;;;;;;4.38;3.75;;;;;;;15.81;100.00;100969.09;3575054;40;20410;-43
2021/08/10 05:45:39;;;;;;;5.95;4.32;;;;;;;15.75;100.00;100965.63;3575160;40;20044;-44
2021/08/10 05:48:07;;;;;;;8.60;4.65;;;;;;;16.08;100.00;100973.63;3575276;40;20089;-46
2021/08/10 05:50:34;;;;;;;5.82;4.65;;;;;;;16.19;100.00;100972.88;3574796;40;20606;-45
2021/08/10 05:53:01;;;;;;;7.55;5.05;;;;;;;16.20;100.00;100960.81;3575157;40;20068;-44
2021/08/10 05:55:28;;;;;;;7.32;4.35;;;;;;;16.30;100.00;100965.19;3575374;40;20463;-45
2021/08/10 05:57:55;;;;;;;8.52;4.53;;;;;;;16.46;100.00;100971.34;3575140;40;20100;-43
2021/08/10 06:00:22;;;;;;;7.10;4.57;;;;;;;16.55;100.00;100968.81;3574984;40;20442;-44
2021/08/10 06:02:49;;;;;;;6.95;4.38;;;;;;;16.63;100.00;100966.25;3575074;40;20112;-47
2021/08/10 06:05:16;;;;;;;8.13;4.18;;;;;;;16.70;100.00;100971.47;3574983;40;20059;-46
2021/08/10 06:07:43;;;;;;;10.18;4.93;;;;;;;16.65;100.00;100970.59;3574982;40;20077;-43
2021/08/10 06:10:10;;;;;;;5.90;3.90;;;;;;;16.90;100.00;100962.97;3575043;40;20458;-45
2021/08/10 06:12:37;;;;;;;6.28;4.05;;;;;;;17.09;100.00;100958.72;3574748;40;20087;-43
2021/08/10 06:15:05;;;;;;;4.35;3.85;;;;;;;17.21;100.00;100951.00;3574834;40;20092;-44
2021/08/10 06:17:32;;;;;;;4.65;3.78;;;;;;;17.25;100.00;100945.84;3574966;40;20118;-45
2021/08/10 06:20:00;;;;;;;7.43;4.55;;;;;;;17.29;100.00;100951.88;3574880;40;20081;-43
2021/08/10 06:22:27;;;;;;;4.40;3.55;;;;;;;17.42;100.00;100953.63;3575281;40;20053;-45
2021/08/10 06:24:54;;;;;;;6.88;3.78;;;;;;;17.44;100.00;100956.22;3574999;40;20096;-43
2021/08/10 06:27:23;;;;;;;6.95;3.67;;;;;;;17.50;100.00;100959.69;3574779;40;20097;-46
2021/08/10 06:29:49;;;;;;;9.25;4.30;;;;;;;17.79;100.00;100957.16;3575128;40;20089;-45
2021/08/10 06:32:17;;;;;;;8.48;4.00;;;;;;;18.03;100.00;100958.03;3573943;40;20061;-46
2021/08/10 06:34:44;;;;;;;6.57;3.72;;;;;;;18.03;100.00;100958.03;3575044;40;20041;-46
2021/08/10 06:37:11;;;;;;;8.45;4.13;;;;;;;18.17;100.00;100952.84;3574577;40;20077;-44
2021/08/10 06:39:38;;;;;;;9.23;5.07;;;;;;;18.41;100.00;100959.69;3574876;40;20344;-46
2021/08/10 06:42:05;;;;;;;7.38;3.30;;;;;;;18.78;99.49;100960.47;3574741;40;20049;-45
2021/08/10 06:44:32;;;;;;;6.60;3.70;;;;;;;18.87;100.00;100959.59;3574506;40;20057;-43
2021/08/10 06:46:59;;;;;;;6.38;3.42;;;;;;;18.72;100.00;100950.09;3574454;40;20076;-44
2021/08/10 06:49:27;;;;;;;5.30;3.60;;;;;;;19.32;100.00;100950.72;3574991;40;20073;-43
2021/08/10 06:51:54;;;;;;;5.63;3.58;;;;;;;19.33;100.00;100955.88;3574755;40;20057;-46
2021/08/10 06:54:21;;;;;;;5.35;3.15;;;;;;;18.94;100.00;100945.69;3574640;40;20089;-44
2021/08/10 06:56:48;;;;;;;10.75;3.97;;;;;;;18.82;100.00;100942.31;3574295;40;22149;-43
2021/08/10 06:59:15;;;;;;;8.00;3.70;;;;;;;18.72;100.00;100939.72;3574476;40;20065;-46
2021/08/10 07:01:42;;;;;;;5.00;3.30;;;;;;;19.05;100.00;100954.31;3574633;40;20069;-46
2021/08/10 07:04:11;;;;;;;5.50;3.35;;;;;;;19.03;100.00;100954.31;3574843;40;20491;-44
2021/08/10 07:06:38;;;;;;;5.05;3.30;;;;;;;19.16;100.00;100947.31;3574458;40;20083;-45
2021/08/10 07:09:06;;;;;;;6.72;3.38;;;;;;;19.07;100.00;100943.03;3574743;40;20162;-44
2021/08/10 07:11:34;;;;;;;4.10;2.95;;;;;;;19.88;96.26;100953.81;3574735;40;20060;-44
2021/08/10 07:14:01;;;;;;;6.80;2.90;;;;;;;20.14;93.35;100945.75;3574309;40;20442;-44
2021/08/10 07:16:30;;;;;;;5.97;2.83;;;;;;;21.26;85.71;100954.00;3574913;40;20110;-49
2021/08/10 07:18:57;;;;;;;6.15;2.72;;;;;;;21.34;88.54;100949.56;3574357;40;20130;-44
2021/08/10 07:21:25;;;;;;;3.63;2.50;;;;;;;21.05;86.34;100947.34;3574650;40;20053;-44
2021/08/10 07:23:52;;;;;;;4.93;2.97;;;;;;;22.27;79.65;100955.00;3574578;40;20056;-45
2021/08/10 07:26:19;;;;;;;5.90;3.58;;;;;;;22.58;76.08;100949.22;3574303;40;20112;-47
2021/08/10 07:28:46;;;;;;;6.20;2.55;;;;;;;22.42;80.79;100939.94;3574336;40;20088;-46
2021/08/10 07:31:13;;;;;;;5.53;2.58;;;;;;;23.15;73.37;100930.63;3574262;40;20041;-46
2021/08/10 07:33:40;;;;;;;4.60;2.75;;;;;;;22.53;74.77;100935.38;3574284;40;20053;-46
2021/08/10 07:36:07;;;;;;;5.22;2.53;;;;;;;21.85;78.03;100938.34;3574263;40;20053;-45
2021/08/10 07:38:34;;;;;;;4.38;3.15;;;;;;;21.83;79.62;100950.56;3574103;40;20088;-44
2021/08/10 07:41:01;;;;;;;7.95;3.33;;;;;;;21.10;83.42;100944.66;3574372;40;20069;-44
2021/08/10 07:43:28;;;;;;;7.80;2.88;;;;;;;20.84;92.02;100951.09;3574491;40;20073;-44
2021/08/10 07:45:56;;;;;;;4.13;2.58;;;;;;;21.29;86.61;100951.34;3574562;40;20345;-44
2021/08/10 07:48:23;;;;;;;5.40;2.95;;;;;;;21.59;81.03;100949.19;3574321;40;20410;-44
2021/08/10 07:50:50;;;;;;;5.18;3.28;;;;;;;21.39;80.98;100944.28;3574460;40;20076;-44
2021/08/10 07:53:20;;;;;;;5.63;2.72;;;;;;;21.54;80.10;100951.03;3574557;40;20088;-46
2021/08/10 07:55:48;;;;;;;4.40;3.13;;;;;;;21.23;85.47;100955.78;3574187;40;20045;-46
2021/08/10 07:58:16;;;;;;;6.55;2.40;;;;;;;21.42;80.25;100959.00;3574276;40;20093;-47
2021/08/10 08:00:43;;;;;;;4.50;2.80;;;;;;;21.66;80.46;100957.78;3574426;40;20061;-45
2021/08/10 08:03:10;;;;;;;5.80;2.92;;;;;;;21.05;85.67;100949.94;3574405;40;20161;-45
2021/08/10 08:05:38;;;;;;;5.28;2.80;;;;;;;21.40;86.97;100948.63;3574372;40;20057;-46
2021/08/10 08:08:05;;;;;;;4.07;2.67;;;;;;;21.24;84.00;100950.53;3574163;40;20797;-47
2021/08/10 08:10:32;;;;;;;6.97;3.88;;;;;;;21.64;83.38;100951.75;3574061;40;20080;-47
2021/08/10 08:13:20;;;;;;;3.25;2.90;;;;;;;21.72;79.17;100940.28;3574433;40;20068;-46
2021/08/10 08:15:47;;;;;;;4.35;2.20;;;;;;;21.33;79.34;100933.94;3573717;40;20093;-44
2021/08/10 08:18:16;;;;;;;4.70;2.50;;;;;;;21.21;80.83;100937.53;3574120;40;20053;-44
2021/08/10 08:20:46;;;;;;;4.63;2.60;;;;;;;21.32;88.49;100935.69;3574042;40;20345;-44
2021/08/10 08:23:14;;;;;;;3.03;2.75;;;;;;;21.42;79.76;100931.22;3574389;40;20081;-44
2021/08/10 08:25:41;;;;;;;5.88;2.45;;;;;;;21.37;80.89;100933.03;3573869;40;20074;-45
2021/08/10 08:28:13;;;;;;;4.82;3.00;;;;;;;21.56;79.02;100937.06;3574169;40;20056;-46
2021/08/10 08:30:40;;;;;;;3.63;3.20;;;;;;;21.63;81.41;100932.63;3574361;40;20093;-45
2021/08/10 08:33:10;;;;;;;5.10;2.60;;;;;;;21.82;79.14;100941.88;3574535;40;20138;-45
2021/08/10 08:35:38;;;;;;;6.00;2.72;;;;;;;21.44;80.66;100934.63;3574227;40;20077;-47
2021/08/10 08:38:10;;;;;;;3.13;2.50;;;;;;;21.41;81.08;100926.03;3573992;40;20060;-45
2021/08/10 08:40:42;;;;;;;4.13;2.85;;;;;;;21.61;79.55;100931.78;3573976;40;20088;-45
2021/08/10 08:43:09;;;;;;;10.43;3.65;;;;;;;21.28;81.27;100934.00;3573945;40;20081;-44
2021/08/10 08:45:37;;;;;;;6.50;3.08;;;;;;;21.49;84.13;100924.16;3573886;40;20085;-44
2021/08/10 08:48:05;;;;;;;4.63;2.90;;;;;;;;;;3574021;40;20287;-45
2021/08/10 08:50:33;;;;;;;5.07;2.67;;;;;;;21.52;83.33;100918.91;3573934;40;20061;-44
2021/08/10 08:53:03;;;;;;;5.35;3.33;;;;;;;21.62;81.62;100925.69;3573863;40;20059;-44
2021/08/10 08:55:31;;;;;;;4.72;2.60;;;;;;;21.44;83.50;100928.56;3573839;40;20052;-44
2021/08/10 08:58:00;;;;;;;7.50;2.83;;;;;;;21.32;83.42;100919.22;3574188;40;20103;-44
2021/08/10 09:00:27;;;;;;;7.55;2.90;;;;;;;21.20;83.36;100922.81;3573906;40;20112;-44
2021/08/10 09:02:54;;;;;;;6.43;2.80;;;;;;;21.32;83.66;100914.84;3573730;40;20057;-47
2021/08/10 09:05:21;;;;;;;7.20;2.70;;;;;;;21.66;77.96;100918.69;3573938;40;20048;-45
2021/08/10 09:07:49;;;;;;;6.10;3.03;;;;;;;22.15;78.05;100910.91;3573773;40;20059;-44
2021/08/10 09:10:19;;;;;;;5.82;3.20;;;;;;;22.43;75.98;100916.44;3573794;40;20065;-48
2021/08/10 09:12:53;;;;;;;7.05;3.47;;;;;;;22.14;75.39;100919.63;3575338;40;20060;-46
2021/08/10 09:15:44;;;;;;;6.35;3.22;;;;;;;22.33;75.48;100930.56;3575541;40;20080;-46
2021/08/10 09:18:14;;;;;;;9.77;4.15;;;;;;;22.64;74.98;100928.19;3575193;40;20400;-45
2021/08/10 09:21:00;;;;;;;4.78;3.17;;;;;;;22.45;74.58;100932.91;3575221;40;20374;-49
2021/08/10 09:23:47;;;;;;;5.17;3.07;;;;;;;22.80;73.72;100942.66;3575375;40;20683;-47
2021/08/10 09:26:20;;;;;;;4.82;2.85;;;;;;;22.56;71.57;100941.41;3575006;40;20033;-45
2021/08/10 09:28:49;;;;;;;4.20;2.60;;;;;;;22.22;68.47;100937.72;3575187;40;20068;-44
2021/08/10 09:31:37;;;;;;;3.88;2.72;;;;;;;22.44;70.08;100940.78;3575211;40;20081;-46
2021/08/10 09:34:25;;;;;;;4.28;2.40;;;;;;;22.20;68.82;100942.13;3575474;40;20070;-44
2021/08/10 09:36:53;;;;;;;3.70;2.63;;;;;;;22.06;71.39;100937.97;3575394;40;20092;-47
2021/08/10 09:39:30;;;;;;;8.00;3.00;;;;;;;22.00;71.94;100935.47;3575370;40;20073;-44
2021/08/10 09:42:10;;;;;;;4.43;2.25;;;;;;;21.91;69.68;100935.66;3575175;40;20081;-44
2021/08/10 09:45:16;;;;;;;2.92;2.22;;;;;;;21.68;69.94;100932.53;3574934;40;20080;-44
2021/08/10 09:47:43;;;;;;;3.55;2.33;;;;;;;22.30;71.33;100938.44;3574827;40;20045;-44
2021/08/10 09:50:18;;;;;;;5.95;3.03;;;;;;;22.55;71.15;100936.22;3575082;40;20434;-44
2021/08/10 09:52:46;;;;;;;6.15;2.25;;;;;;;22.99;68.90;100934.47;3574970;40;20085;-46
2021/08/10 09:55:15;;;;;;;4.25;2.28;;;;;;;23.25;67.77;100936.50;3575032;40;20799;-44
2021/08/10 09:57:59;;;;;;;3.03;2.30;;;;;;;22.68;66.98;100942.06;3575113;40;20409;-44
2021/08/10 10:00:45;;;;;;;3.33;2.05;;;;;;;22.57;66.89;100932.69;3574928;40;20093;-46
2021/08/10 10:03:19;;;;;;;3.95;2.30;;;;;;;22.93;67.62;100930.25;3574812;40;20033;-44
2021/08/10 10:05:47;;;;;;;2.90;2.50;;;;;;;23.00;67.49;100936.19;3574860;40;20037;-45
2021/08/10 10:08:16;;;;;;;4.57;2.50;;;;;;;22.84;72.00;100940.84;3574533;40;20056;-44
2021/08/10 10:10:45;;;;;;;6.85;3.17;;;;;;;22.62;70.32;100932.59;3574705;40;20152;-44
2021/08/10 10:13:15;;;;;;;5.63;3.28;;;;;;;22.74;71.40;100939.31;3574945;40;20089;-44
2021/08/10 10:15:43;;;;;;;6.82;2.67;;;;;;;23.04;72.51;100943.06;3574946;40;20056;-44
2021/08/10 10:18:12;;;;;;;4.18;2.58;;;;;;;22.69;69.73;100935.94;3574945;40;20411;-45
2021/08/10 10:20:44;;;;;;;4.63;2.63;;;;;;;22.71;68.95;100934.16;3574915;40;20059;-45
2021/08/10 10:23:31;;;;;;;5.25;2.75;;;;;;;22.82;67.92;100930.44;3574522;40;20342;-46
2021/08/10 10:26:03;;;;;;;4.10;2.50;;;;;;;23.05;67.07;100929.97;3574959;40;20072;-45
2021/08/10 10:28:32;;;;;;;5.32;2.20;;;;;;;23.26;69.93;100933.00;3574857;40;20047;-46
2021/08/10 10:31:00;;;;;;;6.93;3.03;;;;;;;23.00;68.18;100925.72;3575522;40;20405;-45
2021/08/10 10:33:28;;;;;;;4.72;2.75;;;;;;;23.14;66.20;100926.28;3574913;40;20051;-49
2021/08/10 10:35:55;;;;;;;4.65;2.15;;;;;;;23.40;63.53;100922.22;3574691;40;20049;-45
2021/08/10 10:38:22;;;;;;;3.00;2.00;;;;;;;24.47;57.74;100922.97;3574548;40;20056;-44
2021/08/10 10:40:54;;;;;;;2.45;2.00;;;;;;;25.90;53.78;100929.97;3574686;40;20358;-45
2021/08/10 10:43:27;;;;;;;4.65;2.40;;;;;;;28.90;47.01;100925.81;3574732;40;20108;-44
2021/08/10 10:45:55;;;;;;;3.97;1.80;;;;;;;29.56;44.14;100928.81;3574527;40;20617;-48
2021/08/10 10:48:22;;;;;;;3.83;2.00;;;;;;;29.82;43.38;100924.03;3581894;40;20628;-46
2021/08/10 10:51:22;;;;;;;6.32;1.98;;;;;;;28.81;46.26;100919.19;3574703;40;20092;-44
2021/08/10 10:53:49;;;;;;;4.45;2.00;;;;;;;28.68;43.69;100924.16;3574683;40;20100;-46
2021/08/10 10:56:25;;;;;;;4.80;1.98;;;;;;;27.95;45.38;100916.03;3574512;40;20081;-47
2021/08/10 10:58:53;;;;;;;2.97;1.95;;;;;;;27.41;45.99;100913.84;3574681;40;20085;-44
2021/08/10 11:01:21;;;;;;;4.80;2.03;;;;;;;27.33;47.99;100915.06;3574409;40;20992;-44
2021/08/10 11:04:04;;;;;;;3.40;1.92;;;;;;;28.76;44.22;100912.44;3574656;40;20051;-45
2021/08/10 11:06:33;;;;;;;3.92;2.10;;;;;;;30.99;39.01;100913.41;3573353;40;20451;-46
2021/08/10 11:09:03;;;;;;;7.45;2.55;;;;;;;30.65;40.44;100894.97;3574546;40;20138;-45
2021/08/10 11:11:52;;;;;;;3.33;2.03;;;;;;;31.70;35.08;100909.28;3574608;40;20119;-45
2021/08/10 11:14:38;;;;;;;3.90;1.90;;;;;;;33.16;33.71;100905.59;3574782;40;20330;-46
2021/08/10 11:17:11;;;;;;;2.00;1.70;;;;;;;33.65;31.68;100903.22;3574409;40;20036;-48
2021/08/10 11:19:41;;;;;;;2.67;1.85;;;;;;;33.38;32.69;100903.22;3574498;40;20053;-45
2021/08/10 11:22:17;;;;;;;3.25;2.38;;;;;;;32.84;32.24;100902.34;3574550;40;20081;-43
2021/08/10 11:24:50;;;;;;;5.82;1.80;;;;;;;31.31;34.42;100886.00;3574584;40;20091;-45
2021/08/10 11:27:38;;;;;;;2.30;1.83;;;;;;;31.14;33.75;100894.00;3574316;40;20056;-45
2021/08/10 11:30:25;;;;;;;4.18;1.88;;;;;;;29.81;35.24;100893.25;3574345;40;20085;-50
2021/08/10 11:32:52;;;;;;;3.35;1.77;;;;;;;30.07;35.29;100892.75;3574854;40;20089;-45